createdAt,value
2018-04-18T00:02:10.054Z,20.20
2018-04-18T00:04:37.522Z,21.20
2018-04-18T00:07:04.977Z,21.90
2018-04-18T00:09:32.450Z,23.47
2018-04-18T00:11:59.914Z,25.67
2018-04-18T00:14:27.377Z,26.17
2018-04-18T00:16:54.842Z,29.50
2018-04-18T00:19:22.313Z,31.37
2018-04-18T00:21:55.775Z,24.43
2018-04-18T00:24:23.249Z,20.77
2018-04-18T00:26:50.711Z,23.20
2018-04-18T00:29:18.197Z,27.90
2018-04-18T00:31:45.658Z,26.60
2018-04-18T00:34:13.130Z,25.23
2018-04-18T00:36:40.593Z,25.70
2018-04-18T00:39:08.063Z,29.23
2018-04-18T00:41:40.693Z,28.10
2018-04-18T00:44:08.177Z,27.67
2018-04-18T00:46:35.634Z,27.20
2018-04-18T00:49:03.120Z,27.83
2018-04-18T00:51:32.511Z,26.33
2018-04-18T00:54:00.747Z,29.20
2018-04-18T00:56:28.214Z,29.80
2018-04-18T00:58:55.685Z,28.47
2018-04-18T01:01:23.146Z,30.93
2018-04-18T01:03:50.614Z,25.40
2018-04-18T01:06:18.082Z,28.30
2018-04-18T01:08:45.558Z,27.70
2018-04-18T01:11:13.014Z,36.20
2018-04-18T01:13:40.489Z,31.03
2018-04-18T01:16:07.961Z,27.77
2018-04-18T01:18:35.429Z,29.53
2018-04-18T01:21:02.891Z,24.17
2018-04-18T01:23:30.362Z,39.30
2018-04-18T01:25:58.738Z,30.83
2018-04-18T01:28:26.207Z,33.80
2018-04-18T01:31:03.662Z,26.77
2018-04-18T01:33:31.129Z,27.20
2018-04-18T01:35:58.585Z,29.60
2018-04-18T01:38:26.078Z,26.90
2018-04-18T01:40:53.531Z,26.47
2018-04-18T01:43:20.985Z,33.90
2018-04-18T01:45:48.453Z,41.70
2018-04-18T01:48:16.918Z,38.57
2018-04-18T01:50:50.641Z,35.37
2018-04-18T01:53:18.107Z,31.70
2018-04-18T01:55:45.575Z,21.97
2018-04-18T01:58:13.806Z,26.50
2018-04-18T02:00:41.282Z,23.07
2018-04-18T02:03:08.747Z,45.07
2018-04-18T02:05:36.214Z,25.90
2018-04-18T02:08:06.709Z,24.97
2018-04-18T02:10:34.946Z,27.97
2018-04-18T02:13:02.406Z,23.03
2018-04-18T02:15:33.579Z,26.93
2018-04-18T02:18:01.039Z,24.37
2018-04-18T02:20:29.489Z,22.40
2018-04-18T02:22:57.715Z,30.03
2018-04-18T02:25:25.187Z,23.90
2018-04-18T02:27:53.670Z,26.40
2018-04-18T02:30:23.059Z,27.97
2018-04-18T02:32:50.517Z,27.20
2018-04-18T02:35:17.997Z,55.27
2018-04-18T02:37:46.226Z,34.60
2018-04-18T02:40:13.689Z,25.73
2018-04-18T02:42:41.149Z,28.47
2018-04-18T02:45:08.618Z,26.37
2018-04-18T02:47:36.097Z,23.27
2018-04-18T02:50:03.567Z,24.63
2018-04-18T02:52:31.027Z,32.90
2018-04-18T02:54:58.494Z,32.80
2018-04-18T02:57:25.950Z,27.70
2018-04-18T02:59:56.995Z,37.47
2018-04-18T03:02:24.458Z,27.20
2018-04-18T03:04:56.245Z,29.10
2018-04-18T03:07:23.702Z,29.40
2018-04-18T03:09:51.175Z,74.90
2018-04-18T03:12:18.641Z,47.23
2018-04-18T03:14:46.871Z,34.47
2018-04-18T03:17:14.338Z,46.80
2018-04-18T03:19:41.806Z,47.17
2018-04-18T03:22:10.249Z,42.17
2018-04-18T03:24:37.722Z,33.60
2018-04-18T03:27:09.802Z,36.30
2018-04-18T03:29:52.069Z,30.90
2018-04-18T03:32:19.529Z,40.67
2018-04-18T03:34:56.865Z,27.53
2018-04-18T03:37:24.325Z,42.77
2018-04-18T03:39:53.790Z,32.43
2018-04-18T03:42:21.262Z,35.30
2018-04-18T03:44:48.734Z,75.17
2018-04-18T03:47:16.207Z,32.80
2018-04-18T03:49:43.674Z,37.53
2018-04-18T03:52:34.239Z,48.23
2018-04-18T03:55:01.714Z,52.23
2018-04-18T03:57:29.172Z,40.50
2018-04-18T03:59:57.617Z,22.57
2018-04-18T04:02:25.079Z,20.03
2018-04-18T04:04:53.313Z,34.03
2018-04-18T04:07:20.782Z,23.27
2018-04-18T04:09:48.253Z,31.33
2018-04-18T04:12:15.713Z,46.53
2018-04-18T04:14:43.189Z,53.37
2018-04-18T04:17:22.372Z,38.03
2018-04-18T04:20:02.460Z,48.40
2018-04-18T04:22:41.782Z,40.73
2018-04-18T04:25:09.257Z,51.33
2018-04-18T04:27:52.301Z,28.33
2018-04-18T04:30:20.539Z,36.83
2018-04-18T04:32:47.993Z,34.57
2018-04-18T04:35:17.391Z,31.50
2018-04-18T04:37:44.859Z,41.10
2018-04-18T04:40:12.342Z,35.43
2018-04-18T04:42:39.807Z,32.37
2018-04-18T04:45:07.249Z,28.80
2018-04-18T04:47:35.490Z,25.30
2018-04-18T04:50:03.015Z,30.97
2018-04-18T04:52:30.499Z,28.67
2018-04-18T04:54:57.958Z,28.60
2018-04-18T04:57:26.206Z,28.43
2018-04-18T04:59:53.671Z,29.57
2018-04-18T05:02:21.145Z,31.90
2018-04-18T05:04:48.602Z,29.17
2018-04-18T05:07:16.074Z,34.50
2018-04-18T05:09:53.668Z,31.07
2018-04-18T05:12:21.194Z,29.57
2018-04-18T05:14:49.412Z,29.20
2018-04-18T05:17:16.888Z,29.90
2018-04-18T05:19:44.343Z,26.27
2018-04-18T05:22:12.718Z,27.10
2018-04-18T05:24:40.945Z,25.37
2018-04-18T05:27:08.418Z,21.13
2018-04-18T05:29:35.883Z,21.90
2018-04-18T05:32:03.349Z,27.07
2018-04-18T05:34:30.809Z,31.10
2018-04-18T05:36:58.273Z,27.93
2018-04-18T05:39:25.732Z,20.37
2018-04-18T05:42:05.047Z,24.97
2018-04-18T05:44:33.468Z,23.80
2018-04-18T05:47:01.854Z,23.53
2018-04-18T05:49:30.276Z,23.20
2018-04-18T05:51:57.775Z,20.13
2018-04-18T05:54:25.260Z,19.07
2018-04-18T05:56:52.733Z,17.37
2018-04-18T05:59:20.957Z,17.53
2018-04-18T06:01:48.433Z,15.63
2018-04-18T06:04:15.898Z,15.70
2018-04-18T06:06:43.369Z,15.63
2018-04-18T06:09:10.830Z,14.43
2018-04-18T06:11:38.338Z,12.37
2018-04-18T06:14:05.800Z,12.87
2018-04-18T06:16:33.265Z,11.87
2018-04-18T06:19:00.741Z,12.77
2018-04-18T06:21:28.213Z,11.90
2018-04-18T06:23:55.674Z,10.73
2018-04-18T06:26:23.141Z,11.03
2018-04-18T06:28:50.603Z,11.27
2018-04-18T06:31:18.085Z,10.60
2018-04-18T06:33:45.559Z,9.47
2018-04-18T06:36:13.041Z,10.27
2018-04-18T06:38:40.494Z,10.33
2018-04-18T06:41:07.967Z,8.83
2018-04-18T06:43:35.430Z,10.10
2018-04-18T06:46:02.903Z,10.67
2018-04-18T06:48:30.363Z,10.50
2018-04-18T06:50:57.858Z,10.40
2018-04-18T06:53:25.321Z,9.70
2018-04-18T06:55:52.777Z,10.90
2018-04-18T06:58:20.241Z,10.83
2018-04-18T07:00:47.706Z,11.40
2018-04-18T07:03:15.178Z,11.30
2018-04-18T07:05:42.642Z,11.40
2018-04-18T07:08:10.105Z,11.70
2018-04-18T07:10:37.563Z,12.73
2018-04-18T07:13:05.034Z,13.20
2018-04-18T07:15:32.490Z,13.13
2018-04-18T07:18:00.735Z,12.00
2018-04-18T07:20:28.190Z,11.40
2018-04-18T07:22:56.425Z,10.40
2018-04-18T07:25:24.657Z,11.30
2018-04-18T07:27:52.117Z,10.20
2018-04-18T07:30:19.578Z,9.50
2018-04-18T07:32:47.048Z,8.73
2018-04-18T07:35:14.497Z,9.10
2018-04-18T07:37:42.730Z,8.83
2018-04-18T07:40:10.236Z,9.67
2018-04-18T07:42:38.423Z,10.60
2018-04-18T07:45:05.870Z,9.53
2018-04-18T07:47:33.346Z,10.60
2018-04-18T07:50:00.798Z,10.70
2018-04-18T07:52:28.261Z,10.10
2018-04-18T07:54:55.786Z,11.47
2018-04-18T07:57:23.206Z,11.93
2018-04-18T07:59:50.673Z,10.57
2018-04-18T08:02:18.142Z,11.00
2018-04-18T08:04:46.412Z,12.90
2018-04-18T08:07:13.877Z,11.17
2018-04-18T08:09:41.338Z,12.10
2018-04-18T08:12:09.571Z,11.30
2018-04-18T08:14:37.045Z,14.33
2018-04-18T08:17:04.510Z,12.20
2018-04-18T08:19:31.965Z,11.30
2018-04-18T08:21:59.444Z,11.10
2018-04-18T08:24:26.914Z,10.80
2018-04-18T08:26:54.383Z,11.40
2018-04-18T08:29:21.849Z,11.03
2018-04-18T08:31:49.321Z,20.40
2018-04-18T08:34:16.778Z,11.60
2018-04-18T08:36:44.254Z,11.03
2018-04-18T08:39:11.718Z,11.10
2018-04-18T08:41:39.189Z,12.30
2018-04-18T08:44:06.646Z,12.30
2018-04-18T08:46:34.118Z,12.00
2018-04-18T08:49:01.586Z,12.63
2018-04-18T08:51:29.055Z,12.63
2018-04-18T08:53:56.517Z,12.50
2018-04-18T08:56:23.984Z,12.27
2018-04-18T08:58:51.466Z,12.03
2018-04-18T09:01:18.922Z,12.30
2018-04-18T09:03:47.150Z,12.13
2018-04-18T09:06:14.641Z,13.63
2018-04-18T09:08:42.095Z,14.10
2018-04-18T09:11:09.554Z,13.13
2018-04-18T09:13:37.022Z,13.23
2018-04-18T09:16:04.469Z,14.20
2018-04-18T09:18:31.943Z,12.77
2018-04-18T09:20:59.403Z,12.10
2018-04-18T09:23:26.874Z,12.20
2018-04-18T09:25:54.343Z,11.70
2018-04-18T09:28:21.815Z,11.13
2018-04-18T09:30:49.270Z,10.33
2018-04-18T09:33:17.510Z,11.37
2018-04-18T09:35:44.977Z,11.67
2018-04-18T09:38:12.455Z,11.90
2018-04-18T09:40:39.917Z,10.40
2018-04-18T09:43:07.382Z,9.80
2018-04-18T09:45:34.837Z,9.50
2018-04-18T09:48:02.315Z,10.47
2018-04-18T09:50:29.780Z,9.73
2018-04-18T09:52:58.010Z,10.37
2018-04-18T09:55:25.477Z,9.63
2018-04-18T09:57:52.944Z,10.00
2018-04-18T10:00:20.408Z,8.90
2018-04-18T10:02:53.707Z,8.97
2018-04-18T10:05:21.166Z,9.70
2018-04-18T10:07:48.628Z,9.90
2018-04-18T10:10:16.113Z,11.00
2018-04-18T10:12:44.328Z,10.30
2018-04-18T10:15:11.790Z,10.10
2018-04-18T10:17:39.257Z,10.17
2018-04-18T10:20:06.727Z,12.30
2018-04-18T10:22:34.201Z,9.57
2018-04-18T10:25:01.661Z,10.67
2018-04-18T10:27:29.127Z,10.30
2018-04-18T10:29:56.585Z,11.20
2018-04-18T10:32:24.053Z,10.50
2018-04-18T10:34:51.508Z,10.20
2018-04-18T10:37:18.978Z,9.50
2018-04-18T10:39:46.465Z,9.10
2018-04-18T10:42:13.933Z,10.20
2018-04-18T10:44:41.398Z,11.40
2018-04-18T10:47:08.883Z,10.93
2018-04-18T10:49:36.343Z,11.77
2018-04-18T10:52:03.801Z,10.13
2018-04-18T10:54:31.265Z,11.53
2018-04-18T10:56:58.729Z,11.13
2018-04-18T10:59:26.197Z,12.07
2018-04-18T11:01:53.662Z,12.20
2018-04-18T11:04:21.143Z,11.80
2018-04-18T11:06:48.597Z,12.40
2018-04-18T11:09:16.074Z,12.10
2018-04-18T11:11:43.536Z,11.60
2018-04-18T11:14:11.034Z,12.50
2018-04-18T11:16:38.489Z,12.33
2018-04-18T11:19:05.977Z,12.00
2018-04-18T11:21:33.432Z,12.30
2018-04-18T11:24:00.900Z,11.53
2018-04-18T11:26:28.358Z,11.47
2018-04-18T11:28:55.836Z,11.27
2018-04-18T11:31:23.306Z,11.43
2018-04-18T11:33:51.561Z,12.23
2018-04-18T11:36:19.772Z,11.63
2018-04-18T11:38:47.253Z,9.83
2018-04-18T11:41:14.711Z,9.60
2018-04-18T11:43:42.174Z,10.17
2018-04-18T11:46:09.636Z,10.90
2018-04-18T11:48:37.875Z,11.20
2018-04-18T11:51:05.357Z,10.50
2018-04-18T11:53:32.820Z,10.77
2018-04-18T11:56:00.279Z,9.80
2018-04-18T11:58:27.752Z,9.63
2018-04-18T12:00:55.213Z,9.97
2018-04-18T12:03:22.688Z,7.50
2018-04-18T12:05:50.146Z,9.67
2018-04-18T12:08:17.613Z,8.70
2018-04-18T12:10:45.071Z,9.70
2018-04-18T12:13:12.534Z,8.03
2018-04-18T12:15:39.998Z,9.73
2018-04-18T12:18:08.226Z,9.93
2018-04-18T12:20:35.690Z,9.50
2018-04-18T12:23:03.155Z,10.60
2018-04-18T12:25:30.622Z,9.23
2018-04-18T12:27:58.093Z,8.87
2018-04-18T12:30:25.545Z,8.70
2018-04-18T12:32:53.006Z,10.47
2018-04-18T12:35:20.468Z,10.90
2018-04-18T12:37:48.701Z,10.23
2018-04-18T12:40:16.163Z,9.80
2018-04-18T12:42:43.627Z,8.70
2018-04-18T12:45:11.098Z,9.30
2018-04-18T12:47:38.562Z,9.43
2018-04-18T12:50:06.794Z,10.00
2018-04-18T12:52:34.257Z,8.47
2018-04-18T12:55:01.731Z,10.77
2018-04-18T12:57:29.395Z,10.83
2018-04-18T12:59:56.862Z,11.30
2018-04-18T13:02:24.321Z,8.90
2018-04-18T13:04:51.796Z,10.63
2018-04-18T13:07:19.257Z,9.20
2018-04-18T13:09:46.742Z,10.93
2018-04-18T13:12:14.198Z,11.80
2018-04-18T13:14:41.698Z,12.00
2018-04-18T13:17:09.160Z,11.30
2018-04-18T13:19:37.402Z,10.10
2018-04-18T13:22:04.869Z,9.80
2018-04-18T13:24:32.328Z,12.50
2018-04-18T13:26:59.790Z,12.10
2018-04-18T13:29:28.041Z,12.37
2018-04-18T13:31:55.508Z,12.27
2018-04-18T13:34:22.974Z,12.77
2018-04-18T13:36:50.436Z,14.90
2018-04-18T13:39:17.905Z,12.70
2018-04-18T13:41:45.360Z,14.60
2018-04-18T13:44:12.837Z,15.30
2018-04-18T13:46:40.289Z,12.50
2018-04-18T13:49:08.526Z,11.87
2018-04-18T13:51:35.977Z,12.60
2018-04-18T13:54:03.455Z,11.87
2018-04-18T13:56:30.917Z,12.20
2018-04-18T13:59:02.047Z,12.57
2018-04-18T14:01:30.282Z,12.53
2018-04-18T14:03:57.747Z,12.30
2018-04-18T14:06:25.213Z,12.90
2018-04-18T14:08:52.682Z,13.13
2018-04-18T14:11:20.150Z,13.70
2018-04-18T14:13:47.621Z,14.10
2018-04-18T14:16:15.101Z,13.20
2018-04-18T14:18:42.568Z,14.60
2018-04-18T14:21:10.046Z,13.63
2018-04-18T14:23:37.513Z,13.57
2018-04-18T14:26:04.998Z,13.73
2018-04-18T14:28:32.456Z,13.10
2018-04-18T14:30:59.916Z,13.63
2018-04-18T14:33:27.386Z,15.30
2018-04-18T14:35:54.841Z,13.27
2018-04-18T14:38:22.317Z,13.00
2018-04-18T14:40:49.781Z,15.47
2018-04-18T14:43:17.257Z,15.10
2018-04-18T14:45:44.721Z,13.20
2018-04-18T14:48:12.185Z,12.90
2018-04-18T14:50:40.461Z,13.40
2018-04-18T14:53:07.945Z,13.33
2018-04-18T14:55:35.390Z,13.67
2018-04-18T14:58:02.862Z,13.13
2018-04-18T15:00:30.322Z,12.40
2018-04-18T15:02:57.799Z,14.00
2018-04-18T15:05:25.267Z,15.10
2018-04-18T15:07:52.754Z,15.50
2018-04-18T15:10:20.218Z,14.73
2018-04-18T15:12:47.699Z,13.93
2018-04-18T15:15:15.159Z,12.93
2018-04-18T15:17:42.634Z,12.70
2018-04-18T15:20:10.102Z,12.80
2018-04-18T15:22:37.626Z,14.40
2018-04-18T15:25:05.047Z,12.17
2018-04-18T15:27:32.514Z,13.53
2018-04-18T15:29:59.974Z,11.80
2018-04-18T15:32:27.449Z,12.93
2018-04-18T15:34:54.921Z,12.73
2018-04-18T15:37:32.786Z,13.13
2018-04-18T15:40:00.502Z,11.47
2018-04-18T15:42:27.973Z,10.70
2018-04-18T15:44:55.435Z,11.30
2018-04-18T15:47:24.845Z,12.67
2018-04-18T15:49:52.301Z,11.73
2018-04-18T15:52:25.130Z,12.83
2018-04-18T15:54:53.363Z,13.27
2018-04-18T15:57:20.838Z,11.70
2018-04-18T15:59:48.290Z,11.30
2018-04-18T16:02:15.765Z,12.77
2018-04-18T16:04:43.228Z,11.10
2018-04-18T16:07:10.703Z,11.40
2018-04-18T16:09:38.301Z,10.80
2018-04-18T16:12:07.528Z,10.37
2018-04-18T16:14:34.996Z,11.10
2018-04-18T16:17:04.439Z,10.17
2018-04-18T16:19:31.909Z,10.73
2018-04-18T16:22:03.287Z,9.50
2018-04-18T16:27:24.473Z,9.83
2018-04-18T16:29:51.935Z,11.13
2018-04-18T16:32:19.410Z,9.83
2018-04-18T16:34:46.870Z,8.90
2018-04-18T16:37:14.358Z,9.60
2018-04-18T16:39:41.822Z,8.90
2018-04-18T16:42:09.278Z,9.00
2018-04-18T16:44:36.757Z,8.37
2018-04-18T16:47:04.211Z,10.10
2018-04-18T16:49:33.681Z,7.80
2018-04-18T16:52:01.141Z,7.80
2018-04-18T16:54:35.114Z,7.23
2018-04-18T16:57:02.573Z,7.37
2018-04-18T16:59:30.050Z,6.37
2018-04-18T17:01:57.518Z,12.07
2018-04-18T17:04:24.989Z,10.80
2018-04-18T17:06:54.381Z,12.17
2018-04-18T17:09:21.885Z,11.63
2018-04-18T17:11:53.601Z,12.07
2018-04-18T17:14:21.080Z,11.90
2018-04-18T17:16:50.287Z,11.90
2018-04-18T17:19:21.983Z,10.70
2018-04-18T17:21:49.429Z,10.87
2018-04-18T17:24:17.670Z,9.50
2018-04-18T17:26:45.121Z,9.20
2018-04-18T17:29:18.585Z,11.23
2018-04-18T17:31:49.657Z,10.17
2018-04-18T17:34:17.889Z,10.70
2018-04-18T17:36:45.350Z,11.20
2018-04-18T17:39:16.895Z,11.00
2018-04-18T17:41:44.367Z,11.60
2018-04-18T17:44:11.838Z,11.53
2018-04-18T17:46:44.586Z,11.90
2018-04-18T17:49:12.065Z,12.80
2018-04-18T17:51:39.526Z,12.00
2018-04-18T17:54:19.679Z,12.03
2018-04-18T17:56:47.122Z,11.87
2018-04-18T17:59:14.599Z,11.50
2018-04-18T18:01:42.058Z,13.90
2018-04-18T18:04:09.530Z,14.17
2018-04-18T18:06:37.749Z,12.73
2018-04-18T18:09:06.185Z,14.97
2018-04-18T18:11:34.400Z,14.57
2018-04-18T18:14:01.910Z,13.60
2018-04-18T18:16:39.237Z,16.00
2018-04-18T18:19:08.473Z,15.27
2018-04-18T18:21:36.852Z,15.30
2018-04-18T18:24:06.270Z,13.70
2018-04-18T18:26:33.734Z,12.67
2018-04-18T18:29:02.928Z,13.23
2018-04-18T18:31:31.181Z,13.50
2018-04-18T18:33:58.625Z,13.20
2018-04-18T18:36:26.095Z,14.60
2018-04-18T18:38:58.141Z,14.77
2018-04-18T18:41:27.370Z,16.87
2018-04-18T18:43:54.831Z,17.33
2018-04-18T18:46:22.301Z,19.10
2018-04-18T18:48:49.768Z,18.93
2018-04-18T18:51:17.989Z,19.10
2018-04-18T18:53:45.449Z,18.90
2018-04-18T18:56:12.922Z,20.87
2018-04-18T18:58:40.393Z,19.93
2018-04-18T19:01:07.861Z,18.70
2018-04-18T19:03:37.249Z,17.60
2018-04-18T19:06:09.327Z,21.00
2018-04-18T19:08:37.549Z,18.03
2018-04-18T19:11:06.945Z,18.07
2018-04-18T19:13:34.396Z,18.57
2018-04-18T19:16:02.637Z,19.53
2018-04-18T19:18:30.090Z,19.73
2018-04-18T19:20:57.567Z,17.87
2018-04-18T19:23:26.019Z,17.73
2018-04-18T19:25:57.602Z,18.83
2018-04-18T19:28:26.144Z,18.50
2018-04-18T19:30:53.455Z,21.63
2018-04-18T19:33:20.917Z,20.30
2018-04-18T19:35:50.141Z,19.27
2018-04-18T19:38:17.594Z,18.37
2018-04-18T19:40:45.831Z,18.10
2018-04-18T19:43:13.288Z,18.40
2018-04-18T19:45:46.364Z,17.40
2018-04-18T19:48:13.817Z,17.40
2018-04-18T19:50:42.057Z,18.00
2018-04-18T19:53:09.551Z,18.70
2018-04-18T19:55:36.993Z,18.37
2018-04-18T19:58:04.449Z,18.17
2018-04-18T20:00:32.817Z,21.57
2018-04-18T20:03:00.274Z,19.70
2018-04-18T20:05:28.551Z,19.43
2018-04-18T20:07:56.010Z,20.67
2018-04-18T20:10:23.507Z,18.30
2018-04-18T20:12:52.713Z,18.90
2018-04-18T20:15:25.338Z,21.10
2018-04-18T20:17:52.802Z,20.63
2018-04-18T20:20:20.866Z,21.17
2018-04-18T20:23:05.889Z,21.50
2018-04-18T20:25:33.378Z,21.00
2018-04-18T20:28:00.845Z,19.80
2018-04-18T20:30:30.303Z,20.30
2018-04-18T20:32:58.533Z,19.33
2018-04-18T20:35:25.992Z,21.00
2018-04-18T20:37:56.617Z,21.73
2018-04-18T20:40:24.083Z,22.30
2018-04-18T20:42:58.049Z,20.43
2018-04-18T20:45:26.507Z,20.57
2018-04-18T20:47:54.897Z,21.17
2018-04-18T20:50:28.083Z,21.90
2018-04-18T20:52:56.330Z,21.87
2018-04-18T20:55:23.808Z,21.83
2018-04-18T20:57:51.262Z,22.60
2018-04-18T21:00:18.721Z,22.27
2018-04-18T21:02:46.189Z,22.20
2018-04-18T21:05:15.627Z,23.47
2018-04-18T21:07:43.054Z,25.20
2018-04-18T21:10:10.508Z,21.60
2018-04-18T21:12:38.738Z,20.57
2018-04-18T21:15:06.197Z,23.73
2018-04-18T21:17:37.738Z,25.53
2018-04-18T21:20:05.207Z,24.40
2018-04-18T21:22:32.668Z,22.70
2018-04-18T21:25:00.122Z,25.37
2018-04-18T21:27:27.889Z,24.43
2018-04-18T21:29:55.354Z,24.43
2018-04-18T21:32:22.846Z,23.77
2018-04-18T21:34:51.062Z,25.40
2018-04-18T21:37:18.530Z,25.70
2018-04-18T21:39:45.997Z,27.27
2018-04-18T21:42:13.464Z,24.53
2018-04-18T21:44:40.945Z,25.50
2018-04-18T21:47:08.413Z,25.80
2018-04-18T21:49:35.902Z,24.87
2018-04-18T21:52:03.366Z,24.47
2018-04-18T21:54:30.825Z,24.40
2018-04-18T21:56:58.293Z,26.43
2018-04-18T21:59:25.763Z,27.73
2018-04-18T22:01:53.213Z,28.67
2018-04-18T22:04:21.446Z,26.57
2018-04-18T22:06:49.886Z,24.33
2018-04-18T22:09:18.126Z,23.53
2018-04-18T22:11:45.590Z,22.53
2018-04-18T22:14:20.054Z,25.77
2018-04-18T22:16:48.331Z,24.37
2018-04-18T22:19:15.766Z,24.70
2018-04-18T22:21:43.225Z,21.40
2018-04-18T22:24:10.694Z,21.90
2018-04-18T22:26:38.156Z,26.20
2018-04-18T22:29:05.623Z,25.73
2018-04-18T22:31:33.079Z,25.77
2018-04-18T22:34:05.483Z,26.60
2018-04-18T22:36:32.934Z,25.13
2018-04-18T22:39:01.170Z,25.13
2018-04-18T22:41:28.626Z,26.23
2018-04-18T22:43:56.093Z,28.00
2018-04-18T22:46:23.547Z,26.90
2018-04-18T22:48:51.019Z,27.80
2018-04-18T22:51:18.478Z,28.53
2018-04-18T22:53:45.946Z,30.77
2018-04-18T22:56:14.270Z,29.80
2018-04-18T22:58:41.733Z,28.23
2018-04-18T23:01:09.198Z,33.67
2018-04-18T23:03:36.666Z,32.50
2018-04-18T23:06:04.126Z,30.07
2018-04-18T23:08:31.597Z,26.87
2018-04-18T23:10:59.054Z,27.93
2018-04-18T23:13:27.293Z,27.60
2018-04-18T23:15:54.755Z,26.93
2018-04-18T23:18:22.239Z,26.27
2018-04-18T23:20:49.708Z,28.43
2018-04-18T23:23:17.162Z,25.13
2018-04-18T23:25:44.630Z,26.37
2018-04-18T23:28:12.081Z,25.20
2018-04-18T23:30:39.553Z,26.83
2018-04-18T23:33:07.019Z,22.83
2018-04-18T23:35:34.751Z,24.33
2018-04-18T23:38:02.201Z,22.87
2018-04-18T23:40:29.673Z,23.90
2018-04-18T23:43:03.597Z,23.57
2018-04-18T23:45:32.025Z,23.93
2018-04-18T23:48:00.246Z,24.40
2018-04-18T23:50:30.986Z,24.97
2018-04-18T23:52:58.433Z,25.13
2018-04-18T23:55:25.902Z,23.07
2018-04-18T23:57:53.366Z,24.10
